Time;durP1;ratioP1;P1;durP2;ratioP2;P2;SDS_P1;SDS_P2;PMS_P1;PMS_P2;Temp;Humidity;BMP_temperature;BMP_pressure;BME280_temperature;BME280_humidity;BME280_pressure;Samples;Min_cycle;Max_cycle;Signal;HPM_P1;HPM_P2
2023/05/09 00:01:14;;;;;;;5.50;4.80;;;;;;;4.60;81.84;97397.46;106768;1283;22562;-84
2023/05/09 00:03:42;;;;;;;4.50;4.00;;;;;;;4.58;81.58;97400.36;106630;1283;22548;-84
2023/05/09 00:06:10;;;;;;;5.90;4.60;;;;;;;4.48;81.60;97398.27;106673;1282;137657;-84
2023/05/09 00:09:37;;;;;;;7.00;5.00;;;;;;;4.43;81.83;97396.73;109755;1276;22284;-84
2023/05/09 00:12:08;;;;;;;5.10;3.80;;;;;;;4.43;81.97;97399.86;107502;1278;137578;-84
2023/05/09 00:14:47;;;;;;;5.60;3.80;;;;;;;4.34;81.70;97390.95;106787;1284;22592;-84
2023/05/09 00:17:18;;;;;;;4.60;3.70;;;;;;;4.33;82.12;97399.38;106788;1284;138388;-84
2023/05/09 00:19:52;;;;;;;3.70;3.40;;;;;;;4.33;82.11;97393.25;106697;1284;25226;-84
2023/05/09 00:22:26;;;;;;;4.30;3.70;;;;;;;4.30;82.10;97396.18;106655;1280;22548;-84
2023/05/09 00:25:47;;;;;;;6.00;4.20;;;;;;;4.18;82.20;97394.70;109745;1285;22358;-84
2023/05/09 00:29:10;;;;;;;;;;;;;;;;;;;;;
2023/05/09 00:32:31;;;;;;;5.90;4.30;;;;;;;4.06;82.48;97387.42;109700;1279;22190;-85
2023/05/09 00:35:51;;;;;;;;;;;;;;;;;;;;;
2023/05/09 00:39:17;;;;;;;4.60;3.80;;;;;;;3.96;82.93;97386.80;109792;1280;23051;-85
2023/05/09 00:42:35;;;;;;;;;;;;;;;;;;;;;
2023/05/09 00:46:11;;;;;;;4.70;4.20;;;;;;;3.98;82.94;97378.46;109641;1285;22322;-84
2023/05/09 00:49:35;;;;;;;;;;;;;;;;;;;;;
2023/05/09 00:52:53;;;;;;;;;;;;;;;;;;;;;
2023/05/09 00:56:20;;;;;;;5.50;4.10;;;;;;;3.83;83.63;97366.85;109729;1280;23420;-85
2023/05/09 00:59:17;;;;;;;6.50;4.30;;;;;;;3.79;83.59;97363.39;107275;1282;137771;-84
2023/05/09 01:01:51;;;;;;;4.20;3.60;;;;;;;3.79;83.58;97365.61;106719;1284;23619;-84
2023/05/09 01:04:18;;;;;;;5.50;3.90;;;;;;;3.82;83.98;97369.05;106647;1285;22541;-84
2023/05/09 01:07:11;;;;;;;4.30;3.70;;;;;;;3.85;83.45;97371.69;106607;1283;137703;-84
2023/05/09 01:10:02;;;;;;;5.90;3.30;;;;;;;3.84;83.90;97373.70;106604;1285;23955;-84
2023/05/09 01:13:06;;;;;;;5.10;4.60;;;;;;;3.77;83.78;97370.62;106725;1285;137226;-84
2023/05/09 01:15:40;;;;;;;5.60;4.40;;;;;;;3.78;84.10;97368.77;106708;1280;22596;-84
2023/05/09 01:18:24;;;;;;;5.90;4.40;;;;;;;3.75;83.94;97366.30;106637;1284;137323;-84
2023/05/09 01:21:11;;;;;;;7.40;4.10;;;;;;;3.74;84.51;97370.68;106765;1279;22641;-84
2023/05/09 01:23:43;;;;;;;4.00;3.50;;;;;;;3.69;84.47;97370.00;106638;1278;137220;-84
2023/05/09 01:26:34;;;;;;;6.00;4.10;;;;;;;3.67;84.43;97365.56;106740;1285;22566;-84
2023/05/09 01:29:33;;;;;;;4.80;4.30;;;;;;;3.68;84.68;97366.48;106691;1285;138056;-84
2023/05/09 01:32:14;;;;;;;4.00;3.50;;;;;;;3.66;84.65;97364.21;106727;1285;25269;-84
2023/05/09 01:34:40;;;;;;;4.50;3.80;;;;;;;3.66;85.05;97364.23;106582;1285;136353;-84
2023/05/09 01:37:07;;;;;;;4.90;4.50;;;;;;;3.62;85.07;97357.16;106694;1285;23283;-84
2023/05/09 01:39:33;;;;;;;5.30;4.60;;;;;;;3.64;85.18;97363.21;106801;1278;23038;-84
2023/05/09 01:42:01;;;;;;;4.90;4.40;;;;;;;3.62;85.48;97358.02;106651;1276;137804;-84
2023/05/09 01:44:30;;;;;;;5.10;4.60;;;;;;;3.52;84.92;97359.77;106708;1285;25294;-84
2023/05/09 01:46:56;;;;;;;5.50;4.40;;;;;;;3.48;85.48;97358.19;106697;1284;137442;-84
2023/05/09 01:49:23;;;;;;;5.50;4.70;;;;;;;3.45;85.46;97352.92;106763;1285;22568;-84
2023/05/09 01:51:49;;;;;;;5.30;3.60;;;;;;;3.47;85.61;97352.48;106692;1267;22559;-84
2023/05/09 01:54:15;;;;;;;6.40;3.80;;;;;;;3.47;85.55;97355.91;106688;1285;137835;-84
2023/05/09 01:56:41;;;;;;;4.60;4.20;;;;;;;3.49;85.67;97351.30;106699;1285;22543;-84
2023/05/09 01:59:08;;;;;;;6.30;4.50;;;;;;;3.51;85.83;97352.30;106653;1284;137844;-85
2023/05/09 02:01:34;;;;;;;5.70;4.70;;;;;;;3.49;86.01;97349.19;106806;1284;22540;-85
2023/05/09 02:04:00;;;;;;;5.00;4.30;;;;;;;3.49;86.08;97349.08;106770;1285;26443;-85
2023/05/09 02:06:28;;;;;;;6.60;4.50;;;;;;;3.42;85.88;97345.48;106569;1283;137438;-85
2023/05/09 02:09:07;;;;;;;4.90;3.90;;;;;;;3.39;86.15;97340.86;109763;1285;22201;-85
2023/05/09 02:12:08;;;;;;;4.80;3.80;;;;;;;3.40;86.20;97338.95;109671;1283;138487;-85
2023/05/09 02:15:26;;;;;;;5.00;4.20;;;;;;;3.32;85.79;97338.88;109816;1284;23154;-85
2023/05/09 02:18:42;;;;;;;4.00;3.30;;;;;;;3.29;85.98;97336.30;109684;1278;138599;-85
2023/05/09 02:21:56;;;;;;;4.90;4.40;;;;;;;3.26;86.29;97333.10;109752;1285;23138;-86
2023/05/09 02:25:06;;;;;;;5.30;4.10;;;;;;;3.26;86.24;97334.14;109651;1279;137177;-86
2023/05/09 02:28:17;;;;;;;;;;;;;;;;;;;;;
2023/05/09 02:30:48;;;;;;;5.80;4.30;;;;;;;3.12;87.04;97339.96;107470;1284;137738;-85
2023/05/09 02:33:14;;;;;;;5.70;4.20;;;;;;;3.07;86.86;97334.34;106836;1274;22602;-85
2023/05/09 02:35:42;;;;;;;6.50;3.60;;;;;;;3.13;86.91;97337.50;106597;1283;138413;-84
2023/05/09 02:38:08;;;;;;;6.30;5.00;;;;;;;3.16;86.98;97337.31;106747;1285;22541;-85
2023/05/09 02:40:34;;;;;;;5.40;4.80;;;;;;;3.16;87.03;97328.58;106649;1283;22568;-85
2023/05/09 02:43:01;;;;;;;5.80;4.30;;;;;;;3.15;87.41;97334.47;106699;1285;22812;-84
2023/05/09 02:45:27;;;;;;;4.80;4.30;;;;;;;3.12;87.40;97330.89;106828;1284;22579;-84
2023/05/09 02:47:53;;;;;;;6.50;5.40;;;;;;;3.07;87.34;97332.48;106676;1285;137331;-85
2023/05/09 02:50:19;;;;;;;5.90;4.70;;;;;;;3.06;87.67;97334.48;106726;1282;22543;-84
2023/05/09 02:52:45;;;;;;;4.40;4.00;;;;;;;3.02;87.87;97329.56;106687;1279;137849;-84
2023/05/09 02:55:11;;;;;;;5.20;4.40;;;;;;;3.01;87.77;97327.41;106777;1278;22556;-84
2023/05/09 02:57:38;;;;;;;5.90;5.30;;;;;;;3.01;87.89;97329.27;106788;1280;24433;-84
2023/05/09 03:00:10;;;;;;;6.00;4.60;;;;;;;3.08;88.22;97327.94;106659;1278;137969;-84
2023/05/09 03:02:40;;;;;;;5.20;4.70;;;;;;;3.14;88.32;97326.62;106743;1285;22540;-85
2023/05/09 03:05:06;;;;;;;6.60;5.20;;;;;;;3.20;88.65;97331.80;109086;1285;138598;-85
2023/05/09 03:07:32;;;;;;;6.20;5.30;;;;;;;3.21;88.33;97329.52;106791;1277;24350;-85
2023/05/09 03:09:59;;;;;;;6.00;5.40;;;;;;;3.26;88.54;97328.13;106765;1279;24304;-84
2023/05/09 03:12:25;;;;;;;5.60;5.00;;;;;;;3.30;88.74;97323.60;106590;1285;137169;-84
2023/05/09 03:14:51;;;;;;;7.00;5.30;;;;;;;3.33;88.81;97327.96;106838;1284;24251;-85
2023/05/09 03:17:20;;;;;;;7.60;4.90;;;;;;;3.36;88.80;97325.38;106623;1285;138698;-85
2023/05/09 03:19:50;;;;;;;5.50;4.50;;;;;;;3.37;88.59;97327.34;109766;1277;22197;-85
2023/05/09 03:22:55;;;;;;;5.80;5.20;;;;;;;3.32;88.36;97323.11;109827;1277;22239;-85
2023/05/09 03:25:45;;;;;;;5.80;4.30;;;;;;;3.35;88.14;97319.61;109640;1282;22162;-85
2023/05/09 03:28:13;;;;;;;7.60;4.60;;;;;;;3.39;88.65;97324.13;106744;1271;23553;-84
2023/05/09 03:30:40;;;;;;;8.70;5.00;;;;;;;3.44;88.84;97320.99;106690;1277;137635;-84
2023/05/09 03:33:06;;;;;;;6.50;4.90;;;;;;;3.41;88.73;97320.68;106712;1283;25432;-85
2023/05/09 03:35:33;;;;;;;7.60;5.10;;;;;;;3.33;88.57;97322.52;106411;1280;233898;-85
2023/05/09 03:37:59;;;;;;;6.70;5.50;;;;;;;3.32;88.87;97327.52;106754;1285;24498;-84
2023/05/09 03:40:25;;;;;;;7.50;4.50;;;;;;;3.33;88.77;97323.86;106748;1285;23384;-84
2023/05/09 03:42:51;;;;;;;4.60;3.80;;;;;;;3.30;88.35;97322.41;106645;1278;138557;-85
2023/05/09 03:45:17;;;;;;;4.40;3.90;;;;;;;3.21;88.42;97325.47;106733;1278;22617;-84
2023/05/09 03:47:44;;;;;;;5.10;4.40;;;;;;;3.17;88.78;97325.44;106645;1280;137913;-85
2023/05/09 03:50:11;;;;;;;7.60;4.70;;;;;;;3.23;88.69;97322.01;106876;1281;22645;-85
2023/05/09 03:52:37;;;;;;;6.20;4.50;;;;;;;3.28;89.17;97320.96;106764;1273;22572;-85
2023/05/09 03:55:04;;;;;;;5.30;4.80;;;;;;;3.24;88.93;97322.79;106661;1278;137052;-85
2023/05/09 03:57:30;;;;;;;5.50;4.50;;;;;;;3.23;89.21;97319.44;106687;1285;24229;-85
2023/05/09 03:59:57;;;;;;;6.20;4.50;;;;;;;3.22;89.14;97321.42;106561;1285;137870;-84
2023/05/09 04:02:23;;;;;;;5.00;4.10;;;;;;;3.19;89.27;97323.73;106861;1284;22587;-84
2023/05/09 04:04:51;;;;;;;7.20;4.90;;;;;;;3.12;89.42;97322.33;106666;1280;137416;-85
2023/05/09 04:07:19;;;;;;;6.00;5.00;;;;;;;3.09;89.56;97324.43;106712;1277;24252;-84
2023/05/09 04:10:29;;;;;;;;;;;;;;;;;;;;;
2023/05/09 04:13:03;;;;;;;8.20;4.70;;;;;;;3.13;90.34;97320.09;107367;1286;138647;-85
2023/05/09 04:15:29;;;;;;;6.70;4.40;;;;;;;3.15;90.08;97316.63;106713;1282;23415;-85
2023/05/09 04:17:55;;;;;;;6.10;4.80;;;;;;;3.17;90.67;97320.46;106598;1285;137553;-85
2023/05/09 04:20:22;;;;;;;4.70;4.20;;;;;;;3.20;90.71;97321.92;106777;1285;23928;-85
2023/05/09 04:22:48;;;;;;;5.10;4.50;;;;;;;3.20;90.76;97324.15;106528;1283;137420;-84
2023/05/09 04:25:15;;;;;;;5.80;5.10;;;;;;;3.18;90.68;97326.23;106752;1278;22554;-85
2023/05/09 04:27:42;;;;;;;7.90;5.40;;;;;;;3.16;90.90;97326.84;106751;1276;22584;-84
2023/05/09 04:30:09;;;;;;;5.30;4.80;;;;;;;3.16;90.88;97327.00;106734;1284;137306;-85
2023/05/09 04:32:35;;;;;;;4.80;4.40;;;;;;;3.13;90.57;97329.63;106703;1279;22797;-84
2023/05/09 04:35:02;;;;;;;5.80;5.10;;;;;;;3.14;91.15;97332.15;106699;1283;138549;-85
2023/05/09 04:37:32;;;;;;;5.20;4.70;;;;;;;3.15;91.15;97333.09;106730;1285;23375;-85
2023/05/09 04:39:58;;;;;;;4.70;4.30;;;;;;;3.21;91.23;97329.70;106692;1285;25610;-85
2023/05/09 04:42:25;;;;;;;5.20;4.70;;;;;;;3.29;91.65;97326.17;106606;1285;139275;-85
2023/05/09 04:44:51;;;;;;;4.80;4.30;;;;;;;3.37;91.62;97322.93;106690;1285;26513;-84
2023/05/09 04:47:17;;;;;;;5.60;4.90;;;;;;;3.41;92.08;97325.48;106608;1280;138832;-84
2023/05/09 04:49:45;;;;;;;6.90;4.90;;;;;;;3.42;91.76;97327.48;106713;1285;24454;-84
2023/05/09 04:52:12;;;;;;;5.40;4.70;;;;;;;3.49;91.84;97324.04;106817;1284;24714;-84
2023/05/09 04:54:38;;;;;;;5.80;4.90;;;;;;;3.56;91.96;97319.42;106642;1278;137649;-84
2023/05/09 04:57:05;;;;;;;6.10;4.90;;;;;;;3.57;91.88;97316.41;106681;1280;22543;-84
2023/05/09 04:59:31;;;;;;;9.50;6.10;;;;;;;3.61;91.97;97318.30;106666;1285;137127;-84
2023/05/09 05:01:57;;;;;;;6.40;5.20;;;;;;;3.64;92.07;97318.31;106739;1285;24227;-84
2023/05/09 05:04:27;;;;;;;5.60;4.60;;;;;;;3.68;92.25;97314.58;106698;1279;22612;-84
2023/05/09 05:06:53;;;;;;;6.00;4.90;;;;;;;3.69;92.02;97316.03;106727;1285;138561;-84
2023/05/09 05:09:20;;;;;;;6.70;4.90;;;;;;;3.72;92.06;97313.79;106689;1283;25426;-84
2023/05/09 05:11:46;;;;;;;7.40;6.10;;;;;;;3.81;92.48;97313.90;106627;1285;138144;-84
2023/05/09 05:14:12;;;;;;;8.40;6.90;;;;;;;3.94;92.26;97316.20;106726;1274;26424;-84
2023/05/09 05:16:38;;;;;;;6.20;4.80;;;;;;;4.09;92.58;97313.80;106768;1285;22540;-84
2023/05/09 05:19:10;;;;;;;5.10;4.60;;;;;;;4.19;92.68;97312.19;106710;1285;137746;-84
2023/05/09 05:21:39;;;;;;;7.80;5.70;;;;;;;4.30;92.67;97312.70;106738;1285;22562;-85
2023/05/09 05:24:11;;;;;;;7.50;5.70;;;;;;;4.34;92.65;97310.16;106693;1284;137914;-84
2023/05/09 05:26:37;;;;;;;10.00;7.80;;;;;;;4.39;92.95;97303.53;106718;1278;23301;-84
2023/05/09 05:29:03;;;;;;;9.10;7.70;;;;;;;4.49;92.49;97303.77;106644;1283;137584;-84
2023/05/09 05:31:29;;;;;;;6.20;5.40;;;;;;;4.59;92.31;97298.23;106781;1283;22642;-84
2023/05/09 05:33:56;;;;;;;11.50;9.20;;;;;;;4.69;92.20;97299.95;106703;1285;22559;-84
2023/05/09 05:36:22;;;;;;;10.40;7.50;;;;;;;4.80;91.61;97299.22;106541;1285;138810;-84
2023/05/09 05:38:49;;;;;;;7.80;7.00;;;;;;;4.93;92.12;97301.81;106665;1283;22569;-84
2023/05/09 05:41:22;;;;;;;11.60;8.80;;;;;;;5.04;91.98;97305.73;106761;1284;137385;-84
2023/05/09 05:43:48;;;;;;;11.90;10.30;;;;;;;5.12;91.13;97302.67;106816;1285;25295;-84
2023/05/09 05:46:18;;;;;;;13.80;10.60;;;;;;;5.21;91.07;97306.74;106735;1285;24366;-84
2023/05/09 05:48:44;;;;;;;12.50;9.50;;;;;;;5.28;91.00;97300.96;106639;1278;138527;-84
2023/05/09 05:51:10;;;;;;;12.40;9.30;;;;;;;5.36;90.60;97301.52;106677;1285;23914;-84
2023/05/09 05:53:36;;;;;;;12.40;8.70;;;;;;;5.44;90.26;97305.86;106666;1279;138539;-84
2023/05/09 05:56:06;;;;;;;18.40;10.60;;;;;;;5.56;90.07;97303.11;106774;1278;22637;-84
2023/05/09 05:58:38;;;;;;;11.90;9.10;;;;;;;5.66;89.56;97305.73;106634;1277;22562;-84
2023/05/09 06:01:09;;;;;;;11.70;10.30;;;;;;;5.74;89.16;97303.50;106744;1285;137436;-84
2023/05/09 06:03:48;;;;;;;12.40;9.60;;;;;;;5.84;89.18;97308.52;106679;1279;22513;-84
2023/05/09 06:06:14;;;;;;;12.10;10.30;;;;;;;5.94;88.91;97304.08;106743;1284;137413;-84
2023/05/09 06:08:48;;;;;;;11.70;8.60;;;;;;;6.06;88.45;97302.21;106819;1276;23031;-84
2023/05/09 06:11:20;;;;;;;8.10;7.30;;;;;;;6.16;87.94;97303.09;106602;1282;138205;-85
2023/05/09 06:13:53;;;;;;;7.90;7.10;;;;;;;6.21;87.19;97302.52;106692;1285;22552;-83
2023/05/09 06:16:20;;;;;;;6.30;5.40;;;;;;;6.27;85.34;97294.52;106684;1278;24092;-84
2023/05/09 06:18:51;;;;;;;7.00;6.30;;;;;;;6.36;85.46;97295.34;106670;1285;138102;-84
2023/05/09 06:21:18;;;;;;;8.50;5.30;;;;;;;6.47;85.55;97288.86;106777;1278;22679;-84
2023/05/09 06:23:44;;;;;;;5.30;4.80;;;;;;;6.58;84.58;97286.35;106645;1277;137567;-84
2023/05/09 06:26:14;;;;;;;6.40;5.80;;;;;;;6.65;83.90;97277.98;106684;1285;22559;-84
2023/05/09 06:28:40;;;;;;;7.10;6.30;;;;;;;6.72;85.65;97280.67;106685;1284;137769;-85
2023/05/09 06:31:07;;;;;;;8.30;7.50;;;;;;;6.78;85.91;97280.77;106720;1285;22551;-84
2023/05/09 06:33:36;;;;;;;7.70;6.90;;;;;;;6.83;85.97;97281.14;106750;1284;25488;-84
2023/05/09 06:36:03;;;;;;;7.30;5.50;;;;;;;6.90;84.35;97279.05;106686;1284;138072;-85
2023/05/09 06:38:34;;;;;;;5.60;4.90;;;;;;;6.99;83.85;97274.41;106704;1283;22787;-84
2023/05/09 06:41:07;;;;;;;7.50;6.50;;;;;;;7.10;83.46;97279.59;106571;1280;137865;-84
2023/05/09 06:43:41;;;;;;;8.00;6.70;;;;;;;7.22;84.17;97278.90;106680;1285;22553;-85
2023/05/09 06:46:12;;;;;;;5.60;4.50;;;;;;;7.32;83.17;97279.55;106860;1285;22582;-84
2023/05/09 06:48:44;;;;;;;8.30;6.50;;;;;;;7.40;82.69;97273.90;106602;1285;137683;-84
2023/05/09 06:51:15;;;;;;;;;;;;;;;7.51;82.58;97274.50;106759;1285;22531;-84
2023/05/09 06:53:46;;;;;;;5.80;5.10;;;;;;;7.58;82.40;97276.85;106656;1270;123968;-85
2023/05/09 06:56:12;;;;;;;6.90;5.00;;;;;;;7.63;80.80;97270.79;106775;1277;22559;-84
2023/05/09 06:58:43;;;;;;;4.80;4.30;;;;;;;7.69;80.57;97268.55;106761;1285;25347;-85
2023/05/09 07:01:09;;;;;;;7.00;5.40;;;;;;;7.76;79.88;97269.23;106703;1269;22549;-84
2023/05/09 07:03:41;;;;;;;11.50;7.90;;;;;;;7.84;79.26;97267.45;106838;1278;22789;-84
2023/05/09 07:06:23;;;;;;;7.70;6.30;;;;;;;7.92;80.27;97262.23;106692;1278;137775;-84
2023/05/09 07:08:55;;;;;;;7.80;7.00;;;;;;;7.99;81.49;97258.96;106685;1286;24247;-84
2023/05/09 07:12:05;;;;;;;5.80;5.20;;;;;;;8.07;80.94;97261.15;106637;1285;137514;-84
2023/05/09 07:15:07;;;;;;;;;;;;;;;;;;;;;
2023/05/09 07:18:12;;;;;;;;;;;;;;;;;;;;;
2023/05/09 07:21:39;;;;;;;;;;;;;;;;;;;;;
2023/05/09 07:25:07;;;;;;;6.40;4.60;;;;;;;8.38;78.74;97249.60;109509;1277;138050;-84
2023/05/09 07:28:30;;;;;;;5.50;4.90;;;;;;;8.51;77.88;97249.77;107092;1278;24276;-84
2023/05/09 07:31:55;;;;;;;4.50;4.10;;;;;;;8.63;77.50;97245.92;109647;1280;137704;-85
2023/05/09 07:35:14;;;;;;;5.60;4.70;;;;;;;8.74;75.80;97247.17;106812;1285;23315;-84
2023/05/09 07:38:33;;;;;;;4.60;4.10;;;;;;;8.81;76.61;97242.82;109776;1277;23050;-84
2023/05/09 07:41:59;;;;;;;4.90;4.30;;;;;;;8.89;75.75;97241.41;109576;1285;138314;-85
2023/05/09 07:45:17;;;;;;;;;;;;;;;;;;;;;
2023/05/09 07:48:38;;;;;;;4.90;4.00;;;;;;;9.01;74.77;97238.83;106721;1279;137381;-84
2023/05/09 07:51:42;;;;;;;;;;;;;;;;;;;;;
2023/05/09 07:55:08;;;;;;;4.30;3.90;;;;;;;9.16;74.19;97238.19;107424;1285;138069;-84
2023/05/09 07:58:34;;;;;;;5.10;3.80;;;;;;;9.23;72.78;97231.90;109502;1278;22710;-84
2023/05/09 08:02:01;;;;;;;4.20;3.80;;;;;;;9.34;72.82;97230.23;106634;1277;137837;-84
2023/05/09 08:05:28;;;;;;;4.90;3.80;;;;;;;9.49;72.40;97226.59;106652;1273;24375;-84
2023/05/09 08:08:55;;;;;;;4.30;3.90;;;;;;;9.64;72.78;97221.48;106771;1285;24226;-84
2023/05/09 08:12:06;;;;;;;;;;;;;;;;;;;;;
2023/05/09 08:15:41;;;;;;;4.90;3.60;;;;;;;9.84;71.46;97216.46;109770;1285;22223;-84
2023/05/09 08:19:07;;;;;;;4.60;4.00;;;;;;;9.93;71.44;97217.11;109671;1277;137803;-84
2023/05/09 08:22:35;;;;;;;3.70;3.40;;;;;;;10.06;71.64;97215.20;109714;1280;22187;-85
2023/05/09 08:26:02;;;;;;;4.30;3.90;;;;;;;10.19;71.46;97214.56;107192;1285;137991;-84
2023/05/09 08:29:30;;;;;;;6.00;4.70;;;;;;;10.32;71.70;97217.61;106568;1285;23299;-84
2023/05/09 08:32:48;;;;;;;6.00;4.90;;;;;;;10.39;71.95;97218.75;106702;1285;22561;-84
2023/05/09 08:36:10;;;;;;;6.70;5.10;;;;;;;10.48;73.47;97214.52;106639;1277;138833;-84
2023/05/09 08:39:36;;;;;;;5.90;4.20;;;;;;;10.63;73.68;97212.03;109646;1285;22196;-84
2023/05/09 08:43:02;;;;;;;5.20;4.70;;;;;;;10.78;72.79;97207.89;109606;1277;138610;-84
2023/05/09 08:46:30;;;;;;;;;;;;;;;;;;;;;
2023/05/09 08:49:58;;;;;;;6.00;4.40;;;;;;;10.96;71.59;97215.52;109398;1277;139173;-84
2023/05/09 08:53:25;;;;;;;7.10;4.30;;;;;;;11.06;71.94;97209.09;106559;1285;22619;-84
2023/05/09 08:56:52;;;;;;;6.50;5.40;;;;;;;11.16;71.77;97204.63;106700;1279;23353;-84
2023/05/09 09:00:19;;;;;;;4.70;4.00;;;;;;;11.23;71.96;97194.36;106583;1285;138137;-84
2023/05/09 09:03:44;;;;;;;;;;;;;;;;;;;;;
2023/05/09 09:07:12;;;;;;;6.00;3.90;;;;;;;11.52;67.51;97192.60;106623;1285;137608;-84
2023/05/09 09:10:38;;;;;;;5.70;4.00;;;;;;;11.56;68.10;97182.95;106570;1285;24399;-83
2023/05/09 09:14:05;;;;;;;3.40;2.70;;;;;;;11.69;66.51;97187.23;109550;1285;137670;-85
2023/05/09 09:17:30;;;;;;;;;;;;;;;;;;;;;
2023/05/09 09:20:57;;;;;;;2.70;2.50;;;;;;;11.91;62.91;97191.58;109595;1280;22980;-84
2023/05/09 09:24:25;;;;;;;2.80;2.50;;;;;;;11.97;63.22;97188.67;109553;1285;138025;-84
2023/05/09 09:27:52;;;;;;;3.80;3.40;;;;;;;11.98;64.43;97187.30;109783;1284;22205;-85
2023/05/09 09:31:27;;;;;;;3.50;2.60;;;;;;;12.10;62.33;97187.65;106904;1285;137595;-84
2023/05/09 09:34:51;;;;;;;3.30;2.90;;;;;;;12.12;60.46;97184.95;106686;1277;22963;-84
2023/05/09 09:38:15;;;;;;;3.20;2.90;;;;;;;12.13;63.04;97186.42;109643;1277;138440;-85
2023/05/09 09:41:43;;;;;;;2.70;2.50;;;;;;;12.22;63.14;97181.34;109673;1277;22307;-85
2023/05/09 09:45:00;;;;;;;;;;;;;;;;;;;;;
2023/05/09 09:48:32;;;;;;;3.30;3.00;;;;;;;12.41;62.38;97171.75;109533;1285;137988;-85
2023/05/09 09:51:58;;;;;;;4.60;3.00;;;;;;;12.46;62.44;97179.69;109746;1278;22192;-85
2023/05/09 09:55:24;;;;;;;2.70;2.30;;;;;;;12.53;63.21;97183.79;109648;1283;138153;-85
2023/05/09 09:58:57;;;;;;;2.90;2.70;;;;;;;12.70;61.32;97178.70;109634;1277;22332;-85
2023/05/09 10:02:38;;;;;;;3.20;2.50;;;;;;;12.88;61.11;97175.85;109412;1277;137429;-85
2023/05/09 10:06:07;;;;;;;2.80;2.50;;;;;;;13.06;61.67;97169.81;109311;1277;138417;-86
2023/05/09 10:09:32;;;;;;;;;;;;;;;;;;;;;
2023/05/09 10:13:00;;;;;;;4.10;3.00;;;;;;;13.26;59.15;97166.48;106217;1285;137589;-85
2023/05/09 10:16:27;;;;;;;3.60;3.30;;;;;;;13.33;60.23;97157.27;106557;1277;22577;-84
2023/05/09 10:19:53;;;;;;;2.80;2.50;;;;;;;13.43;61.52;97150.16;106831;1285;138167;-84
2023/05/09 10:23:19;;;;;;;2.60;2.30;;;;;;;13.48;61.03;97145.73;106630;1277;22540;-84
2023/05/09 10:26:58;;;;;;;2.80;2.50;;;;;;;13.41;58.91;97130.62;106671;1285;25318;-84
2023/05/09 10:30:25;;;;;;;3.70;2.70;;;;;;;13.41;60.20;97141.55;109581;1277;138955;-85
2023/05/09 10:33:54;;;;;;;3.60;2.70;;;;;;;13.54;59.79;97139.59;109714;1277;22179;-85
2023/05/09 10:37:21;;;;;;;4.80;2.70;;;;;;;13.62;61.06;97136.25;109659;1285;138513;-85
2023/05/09 10:40:41;;;;;;;3.10;2.60;;;;;;;13.75;59.55;97129.35;106953;1277;24275;-84
2023/05/09 10:44:01;;;;;;;4.10;2.80;;;;;;;13.81;59.71;97129.14;106648;1284;137552;-84
2023/05/09 10:47:28;;;;;;;3.20;2.90;;;;;;;13.79;59.55;97129.80;106677;1285;22877;-84
2023/05/09 10:50:47;;;;;;;2.90;2.30;;;;;;;13.76;59.79;97125.91;106633;1278;24263;-85
2023/05/09 10:54:22;;;;;;;4.60;2.10;;;;;;;13.64;57.44;97127.17;108593;1277;137700;-84
2023/05/09 10:57:49;;;;;;;3.20;2.10;;;;;;;13.51;59.14;97128.64;106654;1285;22535;-84
2023/05/09 11:01:16;;;;;;;4.70;2.10;;;;;;;13.47;58.44;97120.81;106537;1285;138300;-84
2023/05/09 11:04:54;;;;;;;4.20;2.50;;;;;;;13.52;60.29;97108.23;109526;1285;22463;-85
2023/05/09 11:08:24;;;;;;;3.80;2.30;;;;;;;13.65;59.43;97097.25;106322;1277;137713;-85
2023/05/09 11:11:50;;;;;;;2.90;2.20;;;;;;;13.75;59.27;97106.30;106675;1285;25263;-85
2023/05/09 11:15:26;;;;;;;3.30;2.90;;;;;;;13.80;58.10;97099.78;106693;1278;23480;-84
2023/05/09 11:18:52;;;;;;;4.20;2.60;;;;;;;13.81;58.18;97094.98;106424;1283;138038;-85
2023/05/09 11:22:18;;;;;;;3.70;2.10;;;;;;;13.82;58.81;97095.20;109697;1285;22225;-85
2023/05/09 11:25:45;;;;;;;4.40;2.30;;;;;;;13.91;57.14;97096.90;109601;1281;137937;-85
2023/05/09 11:29:03;;;;;;;;;;;;;;;;;;;;;
2023/05/09 11:32:44;;;;;;;3.00;2.60;;;;;;;13.85;56.24;97088.56;109604;1285;137236;-85
2023/05/09 11:36:10;;;;;;;2.70;2.30;;;;;;;13.77;55.95;97083.64;109667;1285;22342;-85
2023/05/09 11:39:43;;;;;;;3.70;2.60;;;;;;;13.68;56.43;97078.49;109683;1285;22190;-85
2023/05/09 11:43:09;;;;;;;3.60;2.30;;;;;;;13.70;58.33;97077.35;109455;1278;137770;-85
2023/05/09 11:46:36;;;;;;;5.10;2.70;;;;;;;13.96;57.03;97068.30;109103;1278;23909;-85
2023/05/09 11:50:03;;;;;;;3.30;2.40;;;;;;;14.11;55.92;97052.34;106629;1285;137493;-85
2023/05/09 11:53:31;;;;;;;3.50;2.50;;;;;;;14.24;56.92;97050.86;106652;1277;25513;-84
2023/05/09 11:56:50;;;;;;;3.40;1.70;;;;;;;14.39;57.05;97049.22;106680;1284;24367;-84
2023/05/09 12:00:17;;;;;;;2.80;2.20;;;;;;;14.49;56.56;97055.33;109727;1278;22319;-85
2023/05/09 12:03:37;;;;;;;2.70;2.40;;;;;;;14.65;54.59;97051.19;109774;1285;22963;-85
2023/05/09 12:06:48;;;;;;;;;;;;;;;;;;;;;
2023/05/09 12:10:16;;;;;;;3.60;2.30;;;;;;;14.83;53.95;97043.41;109833;1277;22193;-85
2023/05/09 12:13:45;;;;;;;2.40;2.00;;;;;;;14.94;54.77;97041.61;109611;1281;137606;-85
2023/05/09 12:16:57;;;;;;;3.70;2.40;;;;;;;14.85;53.91;97040.01;109658;1280;22250;-84
2023/05/09 12:20:24;;;;;;;2.90;2.40;;;;;;;14.71;54.38;97038.14;109614;1278;137915;-85
2023/05/09 12:23:51;;;;;;;3.40;2.10;;;;;;;14.61;54.44;97034.23;109685;1277;22299;-85
2023/05/09 12:27:17;;;;;;;2.10;1.80;;;;;;;14.56;54.42;97024.80;109773;1285;22232;-85
2023/05/09 12:30:43;;;;;;;4.60;2.30;;;;;;;14.49;54.32;97025.55;109126;1278;137661;-85
2023/05/09 12:34:10;;;;;;;3.90;3.00;;;;;;;14.42;53.14;97030.05;106581;1285;23293;-84
2023/05/09 12:37:36;;;;;;;4.10;3.50;;;;;;;14.29;52.10;97026.41;106576;1282;137723;-84
2023/05/09 12:41:03;;;;;;;2.80;2.40;;;;;;;14.25;52.31;97024.13;106595;1285;24073;-84
2023/05/09 12:44:32;;;;;;;3.40;2.00;;;;;;;14.39;50.61;97018.54;106551;1277;137612;-84
2023/05/09 12:48:01;;;;;;;2.30;1.80;;;;;;;14.60;50.78;97006.67;106662;1285;26562;-85
2023/05/09 12:51:26;;;;;;;2.00;1.60;;;;;;;14.74;50.64;97007.23;106641;1278;25402;-84
2023/05/09 12:54:53;;;;;;;2.30;1.60;;;;;;;14.72;50.13;97010.86;106623;1277;137883;-84
2023/05/09 12:58:20;;;;;;;;;;;;;;;;;;;;;
2023/05/09 13:01:49;;;;;;;2.60;1.80;;;;;;;14.73;48.49;97000.52;106511;1283;137509;-84
2023/05/09 13:05:15;;;;;;;2.30;1.90;;;;;;;14.85;50.74;96988.08;109660;1278;22151;-85
2023/05/09 13:08:41;;;;;;;2.60;1.50;;;;;;;14.89;49.80;96980.36;109597;1285;137685;-84
2023/05/09 13:12:04;;;;;;;3.50;2.60;;;;;;;14.90;49.72;96974.45;106690;1278;22585;-84
2023/05/09 13:15:32;;;;;;;3.00;2.30;;;;;;;15.02;48.20;96974.67;106751;1281;22541;-84
2023/05/09 13:18:51;;;;;;;4.00;2.20;;;;;;;15.19;48.30;96970.87;106611;1285;137657;-84
2023/05/09 13:22:18;;;;;;;2.90;1.90;;;;;;;15.33;47.72;96962.78;106961;1278;22536;-84
2023/05/09 13:25:45;;;;;;;2.20;2.00;;;;;;;15.32;47.56;96963.59;106636;1264;137646;-84
2023/05/09 13:29:13;;;;;;;3.10;2.00;;;;;;;15.23;45.74;96964.67;106720;1285;22520;-84
2023/05/09 13:32:39;;;;;;;2.10;1.60;;;;;;;15.20;47.10;96952.71;106436;1286;137550;-84
2023/05/09 13:36:07;;;;;;;2.50;1.30;;;;;;;15.34;48.35;96954.61;106772;1285;22667;-84
2023/05/09 13:39:25;;;;;;;2.90;1.70;;;;;;;15.44;46.29;96957.96;109684;1277;22991;-84
2023/05/09 13:42:51;;;;;;;1.90;1.70;;;;;;;15.35;47.81;96960.02;109701;1285;138086;-85
2023/05/09 13:46:18;;;;;;;1.50;1.30;;;;;;;15.26;46.68;96953.08;107508;1285;22555;-84
2023/05/09 13:49:45;;;;;;;2.70;1.50;;;;;;;15.29;45.65;96944.52;106523;1286;137730;-84
2023/05/09 13:53:12;;;;;;;2.00;1.70;;;;;;;15.45;47.09;96941.89;106607;1284;23451;-84
2023/05/09 13:56:38;;;;;;;1.90;1.70;;;;;;;15.61;45.87;96940.26;106558;1284;137465;-84
2023/05/09 14:00:05;;;;;;;2.70;1.60;;;;;;;15.77;46.43;96933.80;106787;1285;24254;-84
2023/05/09 14:03:31;;;;;;;1.70;1.30;;;;;;;15.99;45.93;96941.63;106618;1278;22662;-84
2023/05/09 14:06:58;;;;;;;1.90;1.70;;;;;;;16.04;45.77;96928.14;106563;1285;137916;-84
2023/05/09 14:10:25;;;;;;;2.00;1.70;;;;;;;16.01;46.07;96930.27;106679;1285;25268;-84
2023/05/09 14:13:44;;;;;;;2.50;2.00;;;;;;;15.85;45.53;96929.94;106499;1285;138362;-84
2023/05/09 14:17:12;;;;;;;2.40;2.00;;;;;;;15.79;46.85;96923.17;106717;1285;22673;-84